sensor_id;sensor_type;location;lat;lon;timestamp;temperature;humidity
22680;DHT22;11507;44.858;10.374;2023-07-02T00:01:47;19.30;99.90
22680;DHT22;11507;44.858;10.374;2023-07-02T00:04:14;19.20;99.90
22680;DHT22;11507;44.858;10.374;2023-07-02T00:06:48;19.20;99.90
22680;DHT22;11507;44.858;10.374;2023-07-02T00:09:15;19.20;99.90
22680;DHT22;11507;44.858;10.374;2023-07-02T00:11:43;19.20;99.90
22680;DHT22;11507;44.858;10.374;2023-07-02T00:14:09;19.20;99.90
22680;DHT22;11507;44.858;10.374;2023-07-02T00:16:38;19.10;99.90
22680;DHT22;11507;44.858;10.374;2023-07-02T00:19:04;19.10;99.90
22680;DHT22;11507;44.858;10.374;2023-07-02T00:21:30;19.10;99.90
22680;DHT22;11507;44.858;10.374;2023-07-02T00:23:59;19.10;99.90
22680;DHT22;11507;44.858;10.374;2023-07-02T00:26:26;19.10;99.90
22680;DHT22;11507;44.858;10.374;2023-07-02T00:28:53;19.10;99.90
22680;DHT22;11507;44.858;10.374;2023-07-02T00:31:19;19.00;99.90
22680;DHT22;11507;44.858;10.374;2023-07-02T00:33:45;19.00;99.90
22680;DHT22;11507;44.858;10.374;2023-07-02T00:36:12;19.00;99.90
22680;DHT22;11507;44.858;10.374;2023-07-02T00:38:45;19.00;99.90
22680;DHT22;11507;44.858;10.374;2023-07-02T00:41:11;18.90;99.90
22680;DHT22;11507;44.858;10.374;2023-07-02T00:43:37;18.90;99.90
22680;DHT22;11507;44.858;10.374;2023-07-02T00:46:19;18.90;99.90
22680;DHT22;11507;44.858;10.374;2023-07-02T00:48:49;18.90;99.90
22680;DHT22;11507;44.858;10.374;2023-07-02T00:51:26;18.90;99.90
22680;DHT22;11507;44.858;10.374;2023-07-02T00:53:53;18.90;99.90
22680;DHT22;11507;44.858;10.374;2023-07-02T00:56:20;18.80;99.90
22680;DHT22;11507;44.858;10.374;2023-07-02T00:58:48;18.80;99.90
22680;DHT22;11507;44.858;10.374;2023-07-02T01:01:26;18.80;99.90
22680;DHT22;11507;44.858;10.374;2023-07-02T01:04:01;18.70;99.90
22680;DHT22;11507;44.858;10.374;2023-07-02T01:06:32;18.70;99.90
22680;DHT22;11507;44.858;10.374;2023-07-02T01:09:01;18.70;99.90
22680;DHT22;11507;44.858;10.374;2023-07-02T01:11:34;18.70;99.90
22680;DHT22;11507;44.858;10.374;2023-07-02T01:16:43;18.70;99.90
22680;DHT22;11507;44.858;10.374;2023-07-02T01:19:18;18.70;99.90
22680;DHT22;11507;44.858;10.374;2023-07-02T01:21:46;18.70;99.90
22680;DHT22;11507;44.858;10.374;2023-07-02T01:24:13;18.70;99.90
22680;DHT22;11507;44.858;10.374;2023-07-02T01:26:40;18.70;99.90
22680;DHT22;11507;44.858;10.374;2023-07-02T01:29:16;18.60;99.90
22680;DHT22;11507;44.858;10.374;2023-07-02T01:31:42;18.60;99.90
22680;DHT22;11507;44.858;10.374;2023-07-02T01:34:08;18.60;99.90
22680;DHT22;11507;44.858;10.374;2023-07-02T01:36:35;18.50;99.90
22680;DHT22;11507;44.858;10.374;2023-07-02T01:39:01;18.50;99.90
22680;DHT22;11507;44.858;10.374;2023-07-02T01:41:27;18.60;99.90
22680;DHT22;11507;44.858;10.374;2023-07-02T01:43:53;18.60;99.90
22680;DHT22;11507;44.858;10.374;2023-07-02T01:46:20;18.60;99.90
22680;DHT22;11507;44.858;10.374;2023-07-02T01:48:46;18.50;99.90
22680;DHT22;11507;44.858;10.374;2023-07-02T01:51:12;18.50;99.90
22680;DHT22;11507;44.858;10.374;2023-07-02T01:53:39;18.50;99.90
22680;DHT22;11507;44.858;10.374;2023-07-02T01:56:05;18.40;99.90
22680;DHT22;11507;44.858;10.374;2023-07-02T01:58:31;18.40;99.90
22680;DHT22;11507;44.858;10.374;2023-07-02T02:01:00;18.30;99.90
22680;DHT22;11507;44.858;10.374;2023-07-02T02:03:29;18.30;99.90
22680;DHT22;11507;44.858;10.374;2023-07-02T02:05:56;18.30;99.90
22680;DHT22;11507;44.858;10.374;2023-07-02T02:08:23;18.30;99.90
22680;DHT22;11507;44.858;10.374;2023-07-02T02:10:49;18.30;99.90
22680;DHT22;11507;44.858;10.374;2023-07-02T02:13:15;18.30;99.90
22680;DHT22;11507;44.858;10.374;2023-07-02T02:15:40;18.30;99.90
22680;DHT22;11507;44.858;10.374;2023-07-02T02:18:09;18.30;99.90
22680;DHT22;11507;44.858;10.374;2023-07-02T02:20:35;18.20;99.90
22680;DHT22;11507;44.858;10.374;2023-07-02T02:23:01;18.20;99.90
22680;DHT22;11507;44.858;10.374;2023-07-02T02:25:26;18.20;99.90
22680;DHT22;11507;44.858;10.374;2023-07-02T02:27:52;18.10;99.90
22680;DHT22;11507;44.858;10.374;2023-07-02T02:30:18;18.10;99.90
22680;DHT22;11507;44.858;10.374;2023-07-02T02:32:44;18.10;99.90
22680;DHT22;11507;44.858;10.374;2023-07-02T02:35:11;18.10;99.90
22680;DHT22;11507;44.858;10.374;2023-07-02T02:37:38;18.00;99.90
22680;DHT22;11507;44.858;10.374;2023-07-02T02:40:09;18.00;99.90
22680;DHT22;11507;44.858;10.374;2023-07-02T02:42:38;17.90;99.90
22680;DHT22;11507;44.858;10.374;2023-07-02T02:45:04;17.90;99.90
22680;DHT22;11507;44.858;10.374;2023-07-02T02:47:30;17.80;99.90
22680;DHT22;11507;44.858;10.374;2023-07-02T02:49:56;17.80;99.90
22680;DHT22;11507;44.858;10.374;2023-07-02T02:52:22;17.80;99.90
22680;DHT22;11507;44.858;10.374;2023-07-02T02:54:47;17.80;99.90
22680;DHT22;11507;44.858;10.374;2023-07-02T02:57:13;17.80;99.90
22680;DHT22;11507;44.858;10.374;2023-07-02T02:59:39;17.80;99.90
22680;DHT22;11507;44.858;10.374;2023-07-02T03:02:05;17.80;99.90
22680;DHT22;11507;44.858;10.374;2023-07-02T03:04:31;17.80;99.90
22680;DHT22;11507;44.858;10.374;2023-07-02T03:06:57;17.80;99.90
22680;DHT22;11507;44.858;10.374;2023-07-02T03:09:23;17.80;99.90
22680;DHT22;11507;44.858;10.374;2023-07-02T03:11:49;17.80;99.90
22680;DHT22;11507;44.858;10.374;2023-07-02T03:14:15;17.80;99.90
22680;DHT22;11507;44.858;10.374;2023-07-02T03:16:42;17.70;99.90
22680;DHT22;11507;44.858;10.374;2023-07-02T03:19:08;17.60;99.90
22680;DHT22;11507;44.858;10.374;2023-07-02T03:21:34;17.60;99.90
22680;DHT22;11507;44.858;10.374;2023-07-02T03:24:00;17.50;99.90
22680;DHT22;11507;44.858;10.374;2023-07-02T03:26:25;17.50;99.90
22680;DHT22;11507;44.858;10.374;2023-07-02T03:28:51;17.50;99.90
22680;DHT22;11507;44.858;10.374;2023-07-02T03:31:17;17.50;99.90
22680;DHT22;11507;44.858;10.374;2023-07-02T03:33:43;17.50;99.90
22680;DHT22;11507;44.858;10.374;2023-07-02T03:36:09;17.50;99.90
22680;DHT22;11507;44.858;10.374;2023-07-02T03:38:34;17.40;99.90
22680;DHT22;11507;44.858;10.374;2023-07-02T03:41:00;17.50;99.90
22680;DHT22;11507;44.858;10.374;2023-07-02T03:43:26;17.50;99.90
22680;DHT22;11507;44.858;10.374;2023-07-02T03:45:52;17.50;99.90
22680;DHT22;11507;44.858;10.374;2023-07-02T03:48:18;17.60;99.90
22680;DHT22;11507;44.858;10.374;2023-07-02T03:50:44;17.60;99.90
22680;DHT22;11507;44.858;10.374;2023-07-02T03:53:09;17.60;99.90
22680;DHT22;11507;44.858;10.374;2023-07-02T03:55:35;17.60;99.90
22680;DHT22;11507;44.858;10.374;2023-07-02T03:58:01;17.60;99.90
22680;DHT22;11507;44.858;10.374;2023-07-02T04:00:27;17.60;99.90
22680;DHT22;11507;44.858;10.374;2023-07-02T04:02:53;17.60;99.90
22680;DHT22;11507;44.858;10.374;2023-07-02T04:05:19;17.60;99.90
22680;DHT22;11507;44.858;10.374;2023-07-02T04:07:45;17.70;99.90
22680;DHT22;11507;44.858;10.374;2023-07-02T04:10:11;17.70;99.90
22680;DHT22;11507;44.858;10.374;2023-07-02T04:12:37;17.70;99.90
22680;DHT22;11507;44.858;10.374;2023-07-02T04:15:04;17.80;99.90
22680;DHT22;11507;44.858;10.374;2023-07-02T04:17:30;17.80;99.90
22680;DHT22;11507;44.858;10.374;2023-07-02T04:19:59;17.80;99.90
22680;DHT22;11507;44.858;10.374;2023-07-02T04:22:25;17.90;99.90
22680;DHT22;11507;44.858;10.374;2023-07-02T04:24:51;18.00;99.90
22680;DHT22;11507;44.858;10.374;2023-07-02T04:27:16;18.00;99.90
22680;DHT22;11507;44.858;10.374;2023-07-02T04:29:45;18.10;99.90
22680;DHT22;11507;44.858;10.374;2023-07-02T04:32:11;18.20;99.90
22680;DHT22;11507;44.858;10.374;2023-07-02T04:34:37;18.20;99.90
22680;DHT22;11507;44.858;10.374;2023-07-02T04:37:04;18.40;99.90
22680;DHT22;11507;44.858;10.374;2023-07-02T04:39:30;18.40;99.90
22680;DHT22;11507;44.858;10.374;2023-07-02T04:41:56;18.60;99.90
22680;DHT22;11507;44.858;10.374;2023-07-02T04:44:22;18.60;99.90
22680;DHT22;11507;44.858;10.374;2023-07-02T04:47:00;18.70;99.90
22680;DHT22;11507;44.858;10.374;2023-07-02T04:49:26;18.90;99.90
22680;DHT22;11507;44.858;10.374;2023-07-02T04:51:53;18.90;99.90
22680;DHT22;11507;44.858;10.374;2023-07-02T04:54:22;19.00;99.90
22680;DHT22;11507;44.858;10.374;2023-07-02T04:56:48;19.10;99.90
22680;DHT22;11507;44.858;10.374;2023-07-02T04:59:14;19.20;99.90
22680;DHT22;11507;44.858;10.374;2023-07-02T05:01:41;19.30;99.90
22680;DHT22;11507;44.858;10.374;2023-07-02T05:04:10;19.40;99.90
22680;DHT22;11507;44.858;10.374;2023-07-02T05:06:39;19.50;99.90
22680;DHT22;11507;44.858;10.374;2023-07-02T05:09:05;19.50;99.90
22680;DHT22;11507;44.858;10.374;2023-07-02T05:11:31;19.60;99.90
22680;DHT22;11507;44.858;10.374;2023-07-02T05:13:57;19.70;99.90
22680;DHT22;11507;44.858;10.374;2023-07-02T05:16:22;19.80;99.90
22680;DHT22;11507;44.858;10.374;2023-07-02T05:18:48;19.90;99.90
22680;DHT22;11507;44.858;10.374;2023-07-02T05:21:17;20.10;99.90
22680;DHT22;11507;44.858;10.374;2023-07-02T05:23:43;20.20;99.90
22680;DHT22;11507;44.858;10.374;2023-07-02T05:26:10;20.40;99.90
22680;DHT22;11507;44.858;10.374;2023-07-02T05:28:36;20.50;99.90
22680;DHT22;11507;44.858;10.374;2023-07-02T05:31:01;20.60;99.90
22680;DHT22;11507;44.858;10.374;2023-07-02T05:33:27;20.80;99.90
22680;DHT22;11507;44.858;10.374;2023-07-02T05:35:53;20.90;99.90
22680;DHT22;11507;44.858;10.374;2023-07-02T05:38:19;21.00;99.90
22680;DHT22;11507;44.858;10.374;2023-07-02T05:40:45;21.10;99.90
22680;DHT22;11507;44.858;10.374;2023-07-02T05:43:11;21.20;99.90
22680;DHT22;11507;44.858;10.374;2023-07-02T05:45:37;21.40;99.90
22680;DHT22;11507;44.858;10.374;2023-07-02T05:48:03;21.50;99.90
22680;DHT22;11507;44.858;10.374;2023-07-02T05:50:29;21.70;99.90
22680;DHT22;11507;44.858;10.374;2023-07-02T05:52:55;21.80;99.90
22680;DHT22;11507;44.858;10.374;2023-07-02T05:55:20;22.00;99.90
22680;DHT22;11507;44.858;10.374;2023-07-02T05:57:46;22.20;99.90
22680;DHT22;11507;44.858;10.374;2023-07-02T06:00:12;22.30;99.90
22680;DHT22;11507;44.858;10.374;2023-07-02T06:02:38;22.50;99.90
22680;DHT22;11507;44.858;10.374;2023-07-02T06:05:04;22.50;99.90
22680;DHT22;11507;44.858;10.374;2023-07-02T06:07:30;22.80;99.90
22680;DHT22;11507;44.858;10.374;2023-07-02T06:09:56;22.90;99.90
22680;DHT22;11507;44.858;10.374;2023-07-02T06:12:22;23.10;99.90
22680;DHT22;11507;44.858;10.374;2023-07-02T06:14:48;23.20;99.90
22680;DHT22;11507;44.858;10.374;2023-07-02T06:17:14;23.40;99.90
22680;DHT22;11507;44.858;10.374;2023-07-02T06:19:41;23.40;99.90
22680;DHT22;11507;44.858;10.374;2023-07-02T06:22:07;23.60;99.90
22680;DHT22;11507;44.858;10.374;2023-07-02T06:24:32;23.70;99.90
22680;DHT22;11507;44.858;10.374;2023-07-02T06:26:58;23.80;99.90
22680;DHT22;11507;44.858;10.374;2023-07-02T06:29:24;23.90;99.90
22680;DHT22;11507;44.858;10.374;2023-07-02T06:31:51;24.00;99.90
22680;DHT22;11507;44.858;10.374;2023-07-02T06:34:16;24.10;99.90
22680;DHT22;11507;44.858;10.374;2023-07-02T06:36:42;24.20;99.90
22680;DHT22;11507;44.858;10.374;2023-07-02T06:39:08;24.40;99.90
22680;DHT22;11507;44.858;10.374;2023-07-02T06:52:57;24.50;99.90
22680;DHT22;11507;44.858;10.374;2023-07-02T06:55:22;25.30;99.90
22680;DHT22;11507;44.858;10.374;2023-07-02T06:57:49;25.60;99.90
22680;DHT22;11507;44.858;10.374;2023-07-02T07:00:15;25.70;99.90
22680;DHT22;11507;44.858;10.374;2023-07-02T07:02:41;25.90;99.90
22680;DHT22;11507;44.858;10.374;2023-07-02T07:05:07;25.90;99.90
22680;DHT22;11507;44.858;10.374;2023-07-02T07:07:35;25.90;99.90
22680;DHT22;11507;44.858;10.374;2023-07-02T07:10:01;26.00;99.90
22680;DHT22;11507;44.858;10.374;2023-07-02T07:12:27;26.10;99.90
22680;DHT22;11507;44.858;10.374;2023-07-02T07:14:53;26.20;99.90
22680;DHT22;11507;44.858;10.374;2023-07-02T07:17:19;26.30;99.90
22680;DHT22;11507;44.858;10.374;2023-07-02T07:19:45;26.40;99.90
22680;DHT22;11507;44.858;10.374;2023-07-02T07:22:11;26.50;99.90
22680;DHT22;11507;44.858;10.374;2023-07-02T07:24:37;26.30;99.90
22680;DHT22;11507;44.858;10.374;2023-07-02T07:27:02;26.30;99.90
22680;DHT22;11507;44.858;10.374;2023-07-02T07:29:28;26.30;99.90
22680;DHT22;11507;44.858;10.374;2023-07-02T07:31:54;26.30;99.90
22680;DHT22;11507;44.858;10.374;2023-07-02T07:34:20;26.40;99.90
22680;DHT22;11507;44.858;10.374;2023-07-02T07:36:46;26.30;99.90
22680;DHT22;11507;44.858;10.374;2023-07-02T07:39:12;26.50;99.90
22680;DHT22;11507;44.858;10.374;2023-07-02T07:41:38;26.60;99.90
22680;DHT22;11507;44.858;10.374;2023-07-02T07:44:04;26.60;99.90
22680;DHT22;11507;44.858;10.374;2023-07-02T07:46:30;26.70;99.90
22680;DHT22;11507;44.858;10.374;2023-07-02T07:48:56;26.70;99.90
22680;DHT22;11507;44.858;10.374;2023-07-02T07:51:22;26.70;99.90
22680;DHT22;11507;44.858;10.374;2023-07-02T07:53:48;26.90;99.90
22680;DHT22;11507;44.858;10.374;2023-07-02T07:56:14;27.00;99.90
22680;DHT22;11507;44.858;10.374;2023-07-02T07:58:40;27.30;99.90
22680;DHT22;11507;44.858;10.374;2023-07-02T08:01:06;27.60;99.90
22680;DHT22;11507;44.858;10.374;2023-07-02T08:03:32;27.90;99.90
22680;DHT22;11507;44.858;10.374;2023-07-02T08:05:58;28.20;99.90
22680;DHT22;11507;44.858;10.374;2023-07-02T08:08:24;28.50;99.90
22680;DHT22;11507;44.858;10.374;2023-07-02T08:10:49;28.60;99.90
22680;DHT22;11507;44.858;10.374;2023-07-02T08:13:15;28.70;99.90
22680;DHT22;11507;44.858;10.374;2023-07-02T08:15:43;28.80;99.90
22680;DHT22;11507;44.858;10.374;2023-07-02T08:18:09;29.00;99.90
22680;DHT22;11507;44.858;10.374;2023-07-02T08:20:37;29.20;99.90
22680;DHT22;11507;44.858;10.374;2023-07-02T08:23:03;29.10;99.90
22680;DHT22;11507;44.858;10.374;2023-07-02T08:25:31;29.20;99.90
22680;DHT22;11507;44.858;10.374;2023-07-02T08:27:57;29.40;99.90
22680;DHT22;11507;44.858;10.374;2023-07-02T08:30:25;29.60;99.90
22680;DHT22;11507;44.858;10.374;2023-07-02T08:32:50;29.80;99.90
22680;DHT22;11507;44.858;10.374;2023-07-02T08:35:19;30.00;99.90
22680;DHT22;11507;44.858;10.374;2023-07-02T08:37:45;30.20;99.90
22680;DHT22;11507;44.858;10.374;2023-07-02T08:40:19;30.30;99.90
22680;DHT22;11507;44.858;10.374;2023-07-02T08:42:46;30.30;99.90
22680;DHT22;11507;44.858;10.374;2023-07-02T08:45:15;30.50;99.90
22680;DHT22;11507;44.858;10.374;2023-07-02T08:47:45;30.70;99.90
22680;DHT22;11507;44.858;10.374;2023-07-02T08:50:14;30.70;99.90
22680;DHT22;11507;44.858;10.374;2023-07-02T08:52:40;30.90;99.90
22680;DHT22;11507;44.858;10.374;2023-07-02T08:55:08;31.00;99.90
22680;DHT22;11507;44.858;10.374;2023-07-02T08:57:35;31.10;99.90
22680;DHT22;11507;44.858;10.374;2023-07-02T09:00:10;31.20;99.90
22680;DHT22;11507;44.858;10.374;2023-07-02T09:02:36;31.40;98.10
22680;DHT22;11507;44.858;10.374;2023-07-02T09:05:03;31.40;99.90
22680;DHT22;11507;44.858;10.374;2023-07-02T09:07:30;31.50;97.50
22680;DHT22;11507;44.858;10.374;2023-07-02T09:09:56;31.50;99.80
22680;DHT22;11507;44.858;10.374;2023-07-02T09:12:29;31.60;99.40
22680;DHT22;11507;44.858;10.374;2023-07-02T09:15:02;31.70;98.90
22680;DHT22;11507;44.858;10.374;2023-07-02T09:17:34;31.90;98.90
22680;DHT22;11507;44.858;10.374;2023-07-02T09:20:03;32.10;99.30
22680;DHT22;11507;44.858;10.374;2023-07-02T09:22:35;32.40;98.50
22680;DHT22;11507;44.858;10.374;2023-07-02T09:25:02;32.60;97.20
22680;DHT22;11507;44.858;10.374;2023-07-02T09:27:41;32.70;97.00
22680;DHT22;11507;44.858;10.374;2023-07-02T09:30:13;32.80;96.90
22680;DHT22;11507;44.858;10.374;2023-07-02T09:32:40;33.00;98.90
22680;DHT22;11507;44.858;10.374;2023-07-02T09:35:06;33.00;97.80
22680;DHT22;11507;44.858;10.374;2023-07-02T09:37:32;33.20;97.70
22680;DHT22;11507;44.858;10.374;2023-07-02T09:39:59;33.40;96.20
22680;DHT22;11507;44.858;10.374;2023-07-02T09:42:26;33.40;96.40
22680;DHT22;11507;44.858;10.374;2023-07-02T09:44:55;33.40;93.10
22680;DHT22;11507;44.858;10.374;2023-07-02T09:47:22;33.30;93.00
22680;DHT22;11507;44.858;10.374;2023-07-02T09:50:02;33.40;96.20
22680;DHT22;11507;44.858;10.374;2023-07-02T09:52:28;33.70;95.30
22680;DHT22;11507;44.858;10.374;2023-07-02T09:54:54;34.00;96.00
22680;DHT22;11507;44.858;10.374;2023-07-02T09:57:21;34.20;92.90
22680;DHT22;11507;44.858;10.374;2023-07-02T09:59:49;34.10;92.60
22680;DHT22;11507;44.858;10.374;2023-07-02T10:02:16;34.20;91.10
22680;DHT22;11507;44.858;10.374;2023-07-02T10:04:44;34.20;92.20
22680;DHT22;11507;44.858;10.374;2023-07-02T10:07:11;34.30;93.00
22680;DHT22;11507;44.858;10.374;2023-07-02T10:09:45;34.50;92.60
22680;DHT22;11507;44.858;10.374;2023-07-02T10:12:27;34.40;92.00
22680;DHT22;11507;44.858;10.374;2023-07-02T10:14:55;34.50;91.00
22680;DHT22;11507;44.858;10.374;2023-07-02T10:17:30;34.50;91.30
22680;DHT22;11507;44.858;10.374;2023-07-02T10:20:02;34.60;91.40
22680;DHT22;11507;44.858;10.374;2023-07-02T10:22:44;34.60;92.30
22680;DHT22;11507;44.858;10.374;2023-07-02T10:25:10;34.90;91.00
22680;DHT22;11507;44.858;10.374;2023-07-02T10:27:40;34.80;91.80
22680;DHT22;11507;44.858;10.374;2023-07-02T10:30:08;34.90;91.10
22680;DHT22;11507;44.858;10.374;2023-07-02T10:32:36;34.80;88.70
22680;DHT22;11507;44.858;10.374;2023-07-02T10:35:16;35.00;92.00
22680;DHT22;11507;44.858;10.374;2023-07-02T10:37:45;35.30;88.20
22680;DHT22;11507;44.858;10.374;2023-07-02T10:40:13;35.60;85.90
22680;DHT22;11507;44.858;10.374;2023-07-02T10:42:49;35.80;85.70
22680;DHT22;11507;44.858;10.374;2023-07-02T10:45:16;36.10;85.30
22680;DHT22;11507;44.858;10.374;2023-07-02T10:47:43;35.70;78.70
22680;DHT22;11507;44.858;10.374;2023-07-02T10:50:20;35.70;82.20
22680;DHT22;11507;44.858;10.374;2023-07-02T10:52:47;35.80;85.00
22680;DHT22;11507;44.858;10.374;2023-07-02T10:55:17;35.70;83.40
22680;DHT22;11507;44.858;10.374;2023-07-02T10:57:44;35.80;81.30
22680;DHT22;11507;44.858;10.374;2023-07-02T11:00:10;35.90;78.10
22680;DHT22;11507;44.858;10.374;2023-07-02T11:02:37;36.10;81.70
22680;DHT22;11507;44.858;10.374;2023-07-02T11:05:05;36.30;77.80
22680;DHT22;11507;44.858;10.374;2023-07-02T11:07:32;36.30;79.00
22680;DHT22;11507;44.858;10.374;2023-07-02T11:09:58;36.50;75.90
22680;DHT22;11507;44.858;10.374;2023-07-02T11:12:31;36.80;80.20
22680;DHT22;11507;44.858;10.374;2023-07-02T11:15:14;36.90;76.60
22680;DHT22;11507;44.858;10.374;2023-07-02T11:17:40;37.20;82.20
22680;DHT22;11507;44.858;10.374;2023-07-02T11:20:11;37.40;78.60
22680;DHT22;11507;44.858;10.374;2023-07-02T11:22:39;37.60;75.30
22680;DHT22;11507;44.858;10.374;2023-07-02T11:25:16;37.90;72.60
22680;DHT22;11507;44.858;10.374;2023-07-02T11:27:43;37.50;77.30
22680;DHT22;11507;44.858;10.374;2023-07-02T11:30:10;37.70;75.30
22680;DHT22;11507;44.858;10.374;2023-07-02T11:32:53;37.90;75.00
22680;DHT22;11507;44.858;10.374;2023-07-02T11:35:20;38.00;75.30
22680;DHT22;11507;44.858;10.374;2023-07-02T11:37:47;38.10;69.80
22680;DHT22;11507;44.858;10.374;2023-07-02T11:40:17;38.00;71.50
22680;DHT22;11507;44.858;10.374;2023-07-02T11:42:43;38.30;71.80
22680;DHT22;11507;44.858;10.374;2023-07-02T11:45:09;38.70;77.50
22680;DHT22;11507;44.858;10.374;2023-07-02T11:47:37;38.90;72.00
22680;DHT22;11507;44.858;10.374;2023-07-02T11:50:05;39.00;69.90
22680;DHT22;11507;44.858;10.374;2023-07-02T11:52:31;39.20;67.40
22680;DHT22;11507;44.858;10.374;2023-07-02T11:54:57;39.20;72.20
22680;DHT22;11507;44.858;10.374;2023-07-02T11:57:23;39.00;62.30
22680;DHT22;11507;44.858;10.374;2023-07-02T11:59:49;38.70;67.30
22680;DHT22;11507;44.858;10.374;2023-07-02T12:02:16;38.50;65.80
22680;DHT22;11507;44.858;10.374;2023-07-02T12:04:42;38.40;70.50
22680;DHT22;11507;44.858;10.374;2023-07-02T12:07:08;38.70;67.90
22680;DHT22;11507;44.858;10.374;2023-07-02T12:09:33;38.90;69.80
22680;DHT22;11507;44.858;10.374;2023-07-02T12:12:00;39.20;66.40
22680;DHT22;11507;44.858;10.374;2023-07-02T12:14:25;39.70;67.00
22680;DHT22;11507;44.858;10.374;2023-07-02T12:16:51;39.80;65.10
22680;DHT22;11507;44.858;10.374;2023-07-02T12:19:17;40.20;65.60
22680;DHT22;11507;44.858;10.374;2023-07-02T12:21:43;40.20;62.80
22680;DHT22;11507;44.858;10.374;2023-07-02T12:24:10;40.50;64.40
22680;DHT22;11507;44.858;10.374;2023-07-02T12:26:36;40.60;63.30
22680;DHT22;11507;44.858;10.374;2023-07-02T12:29:03;40.70;62.70
22680;DHT22;11507;44.858;10.374;2023-07-02T12:31:31;40.20;59.80
22680;DHT22;11507;44.858;10.374;2023-07-02T12:33:57;39.70;60.80
22680;DHT22;11507;44.858;10.374;2023-07-02T12:36:23;39.10;61.40
22680;DHT22;11507;44.858;10.374;2023-07-02T12:38:49;38.60;64.80
22680;DHT22;11507;44.858;10.374;2023-07-02T12:41:15;38.50;62.00
22680;DHT22;11507;44.858;10.374;2023-07-02T12:43:41;38.40;61.70
22680;DHT22;11507;44.858;10.374;2023-07-02T12:46:07;38.50;64.50
22680;DHT22;11507;44.858;10.374;2023-07-02T12:48:33;38.90;63.90
22680;DHT22;11507;44.858;10.374;2023-07-02T12:51:00;39.10;61.80
22680;DHT22;11507;44.858;10.374;2023-07-02T12:53:27;39.00;60.90
22680;DHT22;11507;44.858;10.374;2023-07-02T12:55:54;38.70;62.50
22680;DHT22;11507;44.858;10.374;2023-07-02T12:58:23;38.80;61.10
22680;DHT22;11507;44.858;10.374;2023-07-02T13:00:50;39.10;60.70
22680;DHT22;11507;44.858;10.374;2023-07-02T13:03:17;39.30;59.50
22680;DHT22;11507;44.858;10.374;2023-07-02T13:05:44;39.40;59.30
22680;DHT22;11507;44.858;10.374;2023-07-02T13:08:10;39.50;58.60
22680;DHT22;11507;44.858;10.374;2023-07-02T13:10:37;39.70;58.80
22680;DHT22;11507;44.858;10.374;2023-07-02T13:13:03;39.80;59.70
22680;DHT22;11507;44.858;10.374;2023-07-02T13:15:29;40.10;60.10
22680;DHT22;11507;44.858;10.374;2023-07-02T13:17:55;40.10;59.30
22680;DHT22;11507;44.858;10.374;2023-07-02T13:20:21;40.10;58.80
22680;DHT22;11507;44.858;10.374;2023-07-02T13:22:47;40.30;58.20
22680;DHT22;11507;44.858;10.374;2023-07-02T13:25:13;40.30;59.00
22680;DHT22;11507;44.858;10.374;2023-07-02T13:27:38;40.30;56.80
22680;DHT22;11507;44.858;10.374;2023-07-02T13:30:05;40.30;55.70
22680;DHT22;11507;44.858;10.374;2023-07-02T13:32:31;40.10;54.90
22680;DHT22;11507;44.858;10.374;2023-07-02T13:34:57;39.10;56.60
22680;DHT22;11507;44.858;10.374;2023-07-02T13:37:23;38.30;58.50
22680;DHT22;11507;44.858;10.374;2023-07-02T13:39:49;38.10;57.10
22680;DHT22;11507;44.858;10.374;2023-07-02T13:42:16;38.30;58.50
22680;DHT22;11507;44.858;10.374;2023-07-02T13:44:42;38.70;58.30
22680;DHT22;11507;44.858;10.374;2023-07-02T13:47:08;39.10;59.60
22680;DHT22;11507;44.858;10.374;2023-07-02T13:49:34;39.30;56.10
22680;DHT22;11507;44.858;10.374;2023-07-02T13:52:00;38.70;55.60
22680;DHT22;11507;44.858;10.374;2023-07-02T13:54:26;38.60;57.70
22680;DHT22;11507;44.858;10.374;2023-07-02T13:56:52;38.70;59.20
22680;DHT22;11507;44.858;10.374;2023-07-02T13:59:19;39.10;59.70
22680;DHT22;11507;44.858;10.374;2023-07-02T14:01:46;39.90;57.70
22680;DHT22;11507;44.858;10.374;2023-07-02T14:04:15;40.40;59.10
22680;DHT22;11507;44.858;10.374;2023-07-02T14:06:42;40.70;56.60
22680;DHT22;11507;44.858;10.374;2023-07-02T14:09:08;40.90;56.70
22680;DHT22;11507;44.858;10.374;2023-07-02T14:11:40;41.20;56.50
22680;DHT22;11507;44.858;10.374;2023-07-02T14:14:06;41.30;55.50
22680;DHT22;11507;44.858;10.374;2023-07-02T14:16:32;41.40;56.40
22680;DHT22;11507;44.858;10.374;2023-07-02T14:18:59;41.50;55.70
22680;DHT22;11507;44.858;10.374;2023-07-02T14:21:25;41.40;56.90
22680;DHT22;11507;44.858;10.374;2023-07-02T14:23:51;41.60;53.60
22680;DHT22;11507;44.858;10.374;2023-07-02T14:26:17;41.70;55.00
22680;DHT22;11507;44.858;10.374;2023-07-02T14:28:43;41.80;54.00
22680;DHT22;11507;44.858;10.374;2023-07-02T14:31:09;42.00;54.10
22680;DHT22;11507;44.858;10.374;2023-07-02T14:33:37;42.00;53.90
22680;DHT22;11507;44.858;10.374;2023-07-02T14:36:04;41.90;53.70
22680;DHT22;11507;44.858;10.374;2023-07-02T14:38:31;42.00;54.50
22680;DHT22;11507;44.858;10.374;2023-07-02T14:40:57;41.80;53.10
22680;DHT22;11507;44.858;10.374;2023-07-02T14:43:25;41.70;53.90
22680;DHT22;11507;44.858;10.374;2023-07-02T14:45:58;41.70;52.40
22680;DHT22;11507;44.858;10.374;2023-07-02T14:48:24;41.80;54.10
22680;DHT22;11507;44.858;10.374;2023-07-02T14:50:52;41.70;51.70
22680;DHT22;11507;44.858;10.374;2023-07-02T14:53:19;41.50;51.60
22680;DHT22;11507;44.858;10.374;2023-07-02T14:55:46;41.50;54.50
22680;DHT22;11507;44.858;10.374;2023-07-02T14:58:15;41.60;52.90
22680;DHT22;11507;44.858;10.374;2023-07-02T15:00:53;41.00;53.40
22680;DHT22;11507;44.858;10.374;2023-07-02T15:03:22;40.90;55.00
22680;DHT22;11507;44.858;10.374;2023-07-02T15:05:49;40.20;56.00
22680;DHT22;11507;44.858;10.374;2023-07-02T15:08:15;40.20;56.10
22680;DHT22;11507;44.858;10.374;2023-07-02T15:10:47;39.80;55.00
22680;DHT22;11507;44.858;10.374;2023-07-02T15:13:14;39.90;54.70
22680;DHT22;11507;44.858;10.374;2023-07-02T15:15:42;39.70;55.20
22680;DHT22;11507;44.858;10.374;2023-07-02T15:18:09;39.70;55.90
22680;DHT22;11507;44.858;10.374;2023-07-02T15:20:35;39.40;56.40
22680;DHT22;11507;44.858;10.374;2023-07-02T15:23:01;39.20;55.30
22680;DHT22;11507;44.858;10.374;2023-07-02T15:25:27;38.80;59.00
22680;DHT22;11507;44.858;10.374;2023-07-02T15:27:53;38.60;59.00
22680;DHT22;11507;44.858;10.374;2023-07-02T15:30:19;38.50;58.60